Latest Weather Observations for Moruya Airport

IDN60801

Issued at 4:03 am EDT Tuesday 19 October 2021 (issued every 10 minutes, with the page automatically refreshed every 10 minutes)

About weather observations | Map of weather stations | Latest weather observations for NSW | Other Formats
Station Details ID: 069148 Name: MORUYA AIRPORT AWS Lat: -35.90 Lon: 150.14 Height: 4.0 m
Data from the previous 72 hours. | See also: Recent months at Moruya Airport
Date/Time
EDT
Temp
°C
App
Temp
°C
Dew
Point
°C
Rel
Hum
%
Delta-T
°C
Wind Press
QNH
hPa
Press
MSL
hPa
Rain since
9am
mm
Dir  Spd
km/h
Gust
km/h
Spd
kts
Gust
kts
19/04:00am 13.6 10.4 11.8 89 1.0 S 20 28 11 15 1014.5 1014.4 4.0
19/03:30am 12.7 10.1 11.9 95 0.4 SSW 17 20 9 11 1014.4 1014.3 4.0
19/03:00am 11.6 10.2 10.8 95 0.4 W 9 13 5 7 1013.8 1013.7 4.0
19/02:30am 11.9 10.9 11.1 95 0.4 NW 7 9 4 5 1014.1 1014.0 4.0
19/02:00am 12.5 11.3 11.7 95 0.4 WSW 9 9 5 5 1014.1 1014.0 4.0
19/01:30am 12.4 11.8 11.6 95 0.4 W 6 9 3 5 1014.4 1014.3 4.0
19/01:00am 12.5 11.7 11.6 94 0.5 W 7 9 4 5 1014.8 1014.7 4.0
19/12:30am 12.7 12.1 11.6 93 0.6 W 6 7 3 4 1015.1 1015.0 4.0
19/12:00am 13.2 12.6 11.8 91 0.7 WNW 6 9 3 5 1015.4 1015.3 4.0
 
Date/Time
EDT
Temp
°C
App
Temp
°C
Dew
Point
°C
Rel
Hum
%
Delta-T
°C
Wind Press
QNH
hPa
Press
MSL
hPa
Rain since
9am
mm
Dir  Spd
km/h
Gust
km/h
Spd
kts
Gust
kts
18/11:30pm 13.3 12.2 11.9 91 0.7 W 9 13 5 7 1015.6 1015.5 4.0
18/11:00pm 13.5 12.8 11.9 90 0.9 W 7 11 4 6 1015.7 1015.6 4.0
18/10:34pm 14.4 13.1 12.4 88 1.1 N 11 19 6 10 1016.0 1015.9 4.0
18/10:30pm 14.7 12.8 11.8 83 1.6 NE 13 20 7 11 1015.9 1015.8 4.0
18/10:00pm 14.1 13.0 12.1 88 1.1 NW 9 15 5 8 1017.5 1017.5 1.8
18/09:52pm 14.0 12.1 11.9 87 1.1 WNW 13 17 7 9 1017.7 1017.7 1.2
18/09:45pm 14.1 12.1 11.6 85 1.3 WNW 13 20 7 11 1017.8 1017.8 1.0
18/09:30pm 14.8 11.2 9.8 72 2.6 W 19 28 10 15 1017.6 1017.6 0.8
18/09:28pm 14.9 11.3 9.7 71 2.7 W 19 28 10 15 1017.6 1017.6 0.4
18/09:21pm 16.3 12.7 8.3 59 4.1 W 17 30 9 16 1016.9 1016.9 0.0
18/09:00pm 15.5 13.6 10.5 72 2.6 W 11 15 6 8 1014.9 1014.8 0.0
18/08:30pm 14.9 14.9 9.7 71 2.7 CALM 0 6 0 3 1014.3 1014.2 0.0
18/08:00pm 14.9 13.4 9.1 68 3.0 NNW 7 7 4 4 1014.1 1014.0 0.0
18/07:30pm 16.7 16.3 8.1 57 4.4 CALM 0 0 0 0 1013.8 1013.7 0.0
18/07:00pm 18.4 17.5 7.8 50 5.4 NNW 2 7 1 4 1013.5 1013.4 0.0
18/06:30pm 19.3 17.0 7.4 46 6.0 N 9 13 5 7 1013.0 1012.9 0.0
18/06:00pm 20.1 17.7 7.1 43 6.6 N 9 13 5 7 1012.7 1012.6 0.0
18/05:30pm 19.6 16.9 10.3 55 5.0 NNE 15 17 8 9 1012.6 1012.5 0.0
18/05:00pm 20.0 17.9 8.4 47 6.0 NE 9 13 5 7 1012.7 1012.6 0.0
18/04:30pm 20.3 18.3 8.6 47 6.1 NE 9 11 5 6 1012.7 1012.6 0.0
18/04:00pm 19.6 17.7 8.9 50 5.6 ENE 9 11 5 6 1012.6 1012.5 0.0
18/03:30pm 20.3 17.3 9.2 49 5.9 ENE 15 17 8 9 1012.5 1012.4 0.0
18/03:00pm 20.5 17.4 8.8 47 6.2 ENE 15 19 8 10 1012.7 1012.6 0.0
18/02:30pm 20.8 17.5 9.4 48 6.1 ENE 17 19 9 10 1012.9 1012.8 0.0
18/02:00pm 20.5 17.5 9.4 49 5.9 ENE 15 17 8 9 1013.1 1013.0 0.0
18/01:30pm 19.8 17.4 11.3 58 4.7 ENE 15 17 8 9 1013.5 1013.4 0.0
18/01:00pm 19.5 16.8 10.5 56 4.9 ENE 15 17 8 9 1013.7 1013.6 0.0
18/12:30pm 19.0 15.7 10.8 59 4.4 NE 19 20 10 11 1014.1 1014.0 0.0
18/12:00pm 18.4 15.4 10.8 61 4.1 NE 17 20 9 11 1014.5 1014.4 0.0
18/11:30am 18.3 15.6 10.4 60 4.2 ENE 15 17 8 9 1014.8 1014.7 0.0
18/11:00am 17.8 15.4 9.9 60 4.2 NE 13 15 7 8 1014.9 1014.8 0.0
18/10:30am 18.0 16.1 10.4 61 4.1 ENE 11 15 6 8 1015.2 1015.1 0.0
18/10:00am 19.4 17.0 7.2 45 6.2 NW 9 13 5 7 1015.2 1015.1 0.0
18/09:30am 17.3 15.0 9.0 58 4.3 SW 11 15 6 8 1015.2 1015.1 0.0
18/09:00am 15.3 13.3 8.8 65 3.3 SSW 9 13 5 7 1015.3 1015.2 0.0
18/08:30am 13.1 11.1 8.6 74 2.2 WSW 9 13 5 7 1015.4 1015.3 0.0
18/08:00am 11.7 10.5 9.6 87 1.1 WSW 6 13 3 7 1015.0 1014.9 0.0
18/07:30am 9.6 9.3 8.8 95 0.4 CALM 0 6 0 3 1014.8 1014.7 0.0
18/07:00am 7.9 5.9 7.3 96 0.3 WSW 7 7 4 4 1014.7 1014.6 0.0
18/06:30am 6.4 4.3 5.8 96 0.3 NW 6 7 3 4 1014.4 1014.3 0.0
18/06:00am 5.8 3.6 5.1 95 0.3 ESE 6 9 3 5 1014.3 1014.2 0.0
18/05:30am 6.6 4.9 6.0 96 0.3 SW 4 7 2 4 1014.1 1014.0 0.0
18/05:25am 6.3 4.0 5.7 96 0.3 SW 7 11 4 6 1014.1 1014.0 0.0
18/05:06am 6.3 4.2 5.6 95 0.3 SW 6 6 3 3 1014.0 1013.9 0.0
18/05:00am 6.9 5.3 6.2 95 0.3 SW 4 6 2 3 1014.0 1013.9 0.0
18/04:44am 7.0 6.2 6.3 95 0.3 CALM 0 0 0 0 1013.9 1013.8 0.0
18/04:30am 6.9 5.6 6.2 95 0.3 SW 2 6 1 3 1013.9 1013.8 0.0
18/04:21am 6.7 5.4 6.0 95 0.3 SW 2 7 1 4 1013.9 1013.8 0.0
18/04:00am 7.1 5.1 6.4 95 0.3 SW 6 11 3 6 1013.9 1013.8 0.0
18/03:30am 7.4 6.6 6.5 94 0.4 CALM 0 0 0 0 1014.1 1014.0 0.0
18/03:00am 7.8 7.0 6.7 93 0.5 CALM 0 0 0 0 1014.2 1014.1 0.0
18/02:30am 7.9 7.1 6.7 92 0.6 CALM 0 0 0 0 1014.5 1014.4 0.0
18/02:00am 8.6 8.0 7.2 91 0.7 CALM 0 0 0 0 1014.7 1014.6 0.0
18/01:30am 9.4 8.6 8.0 91 0.7 SW 2 7 1 4 1014.9 1014.8 0.0
18/01:00am 9.7 8.2 8.3 91 0.7 SW 6 7 3 4 1015.2 1015.1 0.0
18/12:30am 9.8 8.6 7.9 88 0.9 SW 4 6 2 3 1015.2 1015.1 0.0
18/12:00am 10.5 9.4 8.3 86 1.1 SW 4 6 2 3 1015.3 1015.2 0.0
 
Date/Time
EDT
Temp
°C
App
Temp
°C
Dew
Point
°C
Rel
Hum
%
Delta-T
°C
Wind Press
QNH
hPa
Press
MSL
hPa
Rain since
9am
mm
Dir  Spd
km/h
Gust
km/h
Spd
kts
Gust
kts
17/11:30pm 11.1 10.3 8.1 82 1.5 SW 2 6 1 3 1015.3 1015.2 0.0
17/11:00pm 12.2 10.2 8.7 79 1.7 SW 9 9 5 5 1015.6 1015.5 0.0
17/10:30pm 13.4 12.2 9.6 78 1.9 SW 6 7 3 4 1015.8 1015.7 0.0
17/10:00pm 13.2 13.1 9.6 79 1.8 CALM 0 0 0 0 1015.8 1015.7 0.0
17/09:30pm 13.8 12.6 9.6 76 2.2 N 6 7 3 4 1015.7 1015.6 0.0
17/09:00pm 14.9 13.4 9.1 68 3.0 N 7 9 4 5 1015.6 1015.5 0.0
17/08:30pm 15.4 13.4 8.6 64 3.5 NNE 9 15 5 8 1015.5 1015.4 0.0
17/08:00pm 15.9 13.2 8.9 63 3.6 NNE 13 19 7 10 1015.2 1015.1 0.0
17/07:30pm 15.8 12.4 7.8 59 4.0 NE 15 20 8 11 1014.7 1014.6 0.0
17/07:00pm 15.7 12.8 8.0 60 3.9 NE 13 19 7 10 1014.3 1014.2 0.0
17/06:30pm 16.3 12.8 7.3 55 4.5 NE 15 20 8 11 1013.9 1013.8 0.0
17/06:00pm 16.6 12.7 7.3 54 4.6 NE 17 22 9 12 1013.6 1013.5 0.0
17/05:30pm 17.1 12.9 7.5 53 4.8 NE 19 22 10 12 1013.2 1013.1 0.0
17/05:00pm 17.5 13.2 7.0 50 5.2 ENE 19 24 10 13 1013.0 1012.9 0.0
17/04:30pm 17.3 12.8 6.2 48 5.4 ENE 19 22 10 12 1012.9 1012.8 0.0
17/04:00pm 16.9 12.9 8.1 56 4.5 ENE 19 24 10 13 1012.8 1012.7 0.0
17/03:30pm 18.1 13.8 7.2 49 5.5 ENE 19 24 10 13 1012.7 1012.6 0.0
17/03:00pm 17.9 13.4 7.0 49 5.4 ENE 20 26 11 14 1012.8 1012.7 0.0
17/02:30pm 18.1 13.9 8.1 52 5.1 ENE 20 24 11 13 1012.9 1012.8 0.0
17/02:00pm 18.0 13.0 6.5 47 5.7 ENE 22 24 12 13 1013.1 1013.0 0.0
17/01:30pm 17.4 12.7 6.0 47 5.6 ENE 20 26 11 14 1013.2 1013.1 0.0
17/01:00pm 17.3 12.6 6.2 48 5.4 ENE 20 24 11 13 1013.4 1013.3 0.0
17/12:30pm 17.2 12.8 6.7 50 5.2 E 19 20 10 11 1013.5 1013.4 0.0
17/12:00pm 16.9 12.8 6.4 50 5.1 E 17 20 9 11 1013.8 1013.7 0.0
17/11:30am 16.9 13.1 5.8 48 5.4 ENE 15 17 8 9 1014.2 1014.1 0.0
17/11:00am 16.4 13.0 6.0 50 5.0 E 13 15 7 8 1014.2 1014.1 0.0
17/10:30am 16.2 13.5 5.5 49 5.1 E 9 13 5 7 1014.4 1014.3 0.0
17/10:00am 15.6 12.7 6.3 54 4.5 ENE 11 15 6 8 1014.4 1014.3 0.0
17/09:30am 15.4 12.9 5.0 50 4.9 E 7 15 4 8 1014.2 1014.1 0.0
17/09:00am 14.0 11.7 4.9 54 4.2 SW 6 7 3 4 1014.1 1014.0 0.2
17/08:30am 12.4 10.4 6.9 69 2.6 SSW 7 11 4 6 1013.9 1013.8 0.2
17/08:00am 10.9 8.3 7.8 81 1.5 SW 11 15 6 8 1013.4 1013.3 0.2
17/07:30am 9.2 8.6 7.6 90 0.8 CALM 0 0 0 0 1013.0 1012.9 0.2
17/07:00am 7.6 5.4 6.4 92 0.5 W 7 9 4 5 1012.6 1012.5 0.2
17/06:30am 6.8 4.4 5.4 91 0.6 SW 7 9 4 5 1012.1 1012.0 0.2
17/06:00am 7.5 4.6 6.3 92 0.5 SW 11 15 6 8 1011.3 1011.2 0.2
17/05:30am 7.1 3.7 6.0 93 0.5 WSW 13 15 7 8 1010.8 1010.7 0.2
17/05:00am 7.2 4.9 5.8 91 0.6 WSW 7 9 4 5 1010.2 1010.1 0.2
17/04:30am 7.5 6.6 6.0 90 0.7 CALM 0 6 0 3 1010.1 1010.0 0.2
17/04:00am 8.3 5.5 6.8 90 0.7 SW 11 15 6 8 1009.7 1009.6 0.2
17/03:30am 7.8 5.7 6.7 93 0.5 WSW 7 11 4 6 1009.6 1009.5 0.2
17/03:00am 8.2 6.4 7.0 92 0.6 WNW 6 7 3 4 1009.5 1009.4 0.2
17/02:30am 8.1 7.3 6.6 90 0.7 CALM 0 0 0 0 1009.4 1009.3 0.2
17/02:00am 8.6 6.8 7.1 90 0.7 WNW 6 7 3 4 1009.3 1009.2 0.2
17/01:30am 9.3 8.7 7.4 88 0.9 CALM 0 0 0 0 1009.2 1009.1 0.2
17/01:00am 9.7 7.4 7.5 86 1.0 S 9 13 5 7 1009.2 1009.1 0.2
17/12:30am 10.1 8.1 7.3 83 1.3 S 7 11 4 6 1009.1 1009.0 0.2
17/12:00am 10.3 8.6 7.4 82 1.4 S 6 9 3 5 1008.9 1008.8 0.2
 
Date/Time
EDT
Temp
°C
App
Temp
°C
Dew
Point
°C
Rel
Hum
%
Delta-T
°C
Wind Press
QNH
hPa
Press
MSL
hPa
Rain since
9am
mm
Dir  Spd
km/h
Gust
km/h
Spd
kts
Gust
kts
16/11:30pm 10.3 8.0 7.5 83 1.3 S 9 13 5 7 1008.7 1008.6 0.2
16/11:00pm 9.7 8.1 6.2 79 1.6 S 4 7 2 4 1008.4 1008.3 0.2
16/10:30pm 10.0 7.8 6.2 77 1.8 S 7 9 4 5 1008.3 1008.2 0.2
16/10:00pm 11.7 10.3 7.2 74 2.2 S 4 7 2 4 1007.9 1007.8 0.2
16/09:30pm 13.1 10.6 5.0 58 3.7 SW 7 11 4 6 1007.4 1007.3 0.2
16/09:00pm 14.5 11.3 3.0 46 5.2 WNW 9 17 5 9 1006.9 1006.8 0.2
16/08:30pm 14.2 11.1 3.7 49 4.8 N 9 13 5 7 1006.0 1005.9 0.2
16/08:00pm 17.3 12.6 2.9 38 6.6 SSW 17 22 9 12 1005.0 1004.9 0.2
16/07:30pm 17.5 13.2 3.0 38 6.7 SSW 15 19 8 10 1004.5 1004.4 0.2
16/07:00pm 18.7 14.0 2.9 35 7.3 SSW 17 24 9 13 1003.9 1003.8 0.2
16/06:30pm 19.2 14.0 3.8 36 7.3 S 20 28 11 15 1003.2 1003.1 0.2
16/06:00pm 20.1 14.1 3.3 33 8.0 S 24 32 13 17 1002.5 1002.4 0.2
16/05:30pm 20.5 14.6 4.1 34 7.9 S 24 33 13 18 1002.0 1001.9 0.2
16/05:00pm 21.3 13.7 2.6 29 8.8 SSW 32 43 17 23 1001.7 1001.6 0.2
16/04:30pm 22.4 16.8 3.5 29 9.1 SW 22 37 12 20 1001.2 1001.1 0.2
16/04:00pm 20.7 15.0 4.7 35 7.8 S 24 33 13 18 1000.8 1000.7 0.2
16/03:30pm 21.6 16.4 5.5 35 8.0 SSW 22 33 12 18 1000.7 1000.6 0.0
16/03:00pm 20.7 16.1 6.6 40 7.2 SSW 20 32 11 17 1000.7 1000.6 0.0
16/02:30pm 20.1 14.2 5.7 39 7.1 SW 26 37 14 20 1000.4 1000.3 0.0
16/02:00pm 20.1 15.3 5.4 38 7.3 WSW 20 35 11 19 1000.2 1000.1 0.0
16/01:30pm 19.7 15.5 7.4 45 6.3 SW 19 30 10 16 1000.0 999.9 0.0
16/01:00pm 20.8 17.0 5.6 37 7.6 SSW 15 26 8 14 999.6 999.5 0.0
16/12:30pm 20.6 17.1 5.4 37 7.5 SSW 13 20 7 11 999.7 999.6 0.0
16/12:00pm 20.0 17.6 7.1 43 6.6 WSW 9 19 5 10 999.8 999.7 0.0
16/11:30am 18.8 15.5 6.6 45 6.1 NNW 13 19 7 10 1000.1 1000.0 0.0
16/11:00am 19.3 16.4 6.4 43 6.5 WSW 11 17 6 9 999.8 999.7 0.0
16/10:30am 18.8 16.2 6.3 44 6.2 WNW 9 15 5 8 999.8 999.7 0.0
16/10:00am 18.2 14.8 6.1 45 6.0 WNW 13 24 7 13 999.4 999.3 0.0
16/09:30am 17.6 13.9 6.5 48 5.5 NW 15 24 8 13 999.5 999.4 0.0
16/09:00am 16.0 11.8 5.9 51 4.9 NW 17 28 9 15 999.2 999.1 4.0
16/08:30am 16.0 12.2 5.9 51 4.9 NW 15 28 8 15 999.1 999.0 4.0
16/08:00am 15.3 11.7 6.8 57 4.2 NNW 15 20 8 11 998.8 998.7 4.0
16/07:30am 14.1 11.1 6.2 59 3.8 NNW 11 19 6 10 998.4 998.3 4.0
16/07:00am 12.7 10.5 6.1 64 3.1 WNW 7 13 4 7 998.2 998.1 4.0
16/06:30am 10.6 8.4 6.0 73 2.1 NW 7 15 4 8 997.8 997.7 4.0
16/06:00am 10.2 8.1 6.5 78 1.7 NW 7 11 4 6 997.3 997.2 4.0
16/05:30am 9.1 7.4 7.7 91 0.7 N 6 9 3 5 997.1 997.0 4.0
16/05:00am 9.5 7.3 7.9 90 0.8 NNE 9 13 5 7 996.9 996.8 3.8
16/04:30am 9.9 8.3 8.7 92 0.6 NNW 7 9 4 5 996.8 996.7 3.8

Other formats

Comma delimited format used in spreadsheet applications
http://www.bom.gov.au/fwo/IDN60801/IDN60801.95937.axf

JavaScript Object Notation format (JSON) in row-major order
http://www.bom.gov.au/fwo/IDN60801/IDN60801.95937.json

Data quality

Most of these data are generated automatically and are frequently updated. Quality checks on data are not normally performed. It is possible for incorrect values to appear. Refer to information at About Latest Weather Observations and please check the disclaimer before using these data.